createdAt,value
2022-12-27T00:00:24.131Z,7.90
2022-12-27T00:02:50.979Z,8.13
2022-12-27T00:05:17.567Z,8.23
2022-12-27T00:07:44.413Z,8.26
2022-12-27T00:10:12.486Z,8.22
2022-12-27T00:12:39.071Z,7.76
2022-12-27T00:15:06.686Z,6.77
2022-12-27T00:17:33.229Z,6.70
2022-12-27T00:20:02.867Z,6.80
2022-12-27T00:22:32.034Z,7.12
2022-12-27T00:24:58.607Z,7.92
2022-12-27T00:27:27.035Z,8.13
2022-12-27T00:29:53.592Z,8.17
2022-12-27T00:32:20.253Z,8.19
2022-12-27T00:34:46.799Z,8.19
2022-12-27T00:37:13.378Z,8.26
2022-12-27T00:39:39.936Z,8.25
2022-12-27T00:42:06.568Z,8.25
2022-12-27T00:44:34.539Z,8.28
2022-12-27T00:47:01.073Z,8.23
2022-12-27T00:49:27.652Z,8.24
2022-12-27T00:51:54.180Z,8.25
2022-12-27T00:54:20.806Z,8.34
2022-12-27T00:56:47.416Z,8.36
2022-12-27T00:59:14.000Z,8.38
2022-12-27T01:01:41.998Z,8.42
2022-12-27T01:04:09.836Z,8.42
2022-12-27T01:06:36.409Z,8.39
2022-12-27T01:09:04.520Z,8.38
2022-12-27T01:11:32.017Z,8.41
2022-12-27T01:14:00.327Z,8.42
2022-12-27T01:16:28.740Z,8.41
2022-12-27T01:18:57.132Z,8.24
2022-12-27T01:21:25.256Z,6.93
2022-12-27T01:23:51.887Z,7.30
2022-12-27T01:26:21.373Z,7.45
2022-12-27T01:28:48.760Z,6.89
2022-12-27T01:31:17.368Z,7.53
2022-12-27T01:33:44.215Z,7.82
2022-12-27T01:36:14.024Z,8.00
2022-12-27T01:38:43.243Z,7.57
2022-12-27T01:41:40.030Z,7.66
2022-12-27T01:44:51.408Z,6.13
2022-12-27T01:47:29.370Z,6.11
2022-12-27T01:50:03.261Z,5.96
2022-12-27T01:52:35.512Z,6.06
2022-12-27T01:55:11.132Z,7.43
2022-12-27T01:57:38.391Z,6.73
2022-12-27T02:00:06.302Z,6.12
2022-12-27T02:02:33.245Z,6.66
2022-12-27T02:05:00.187Z,7.81
2022-12-27T02:07:38.579Z,7.97
2022-12-27T02:10:06.193Z,7.86
2022-12-27T02:12:32.793Z,8.01
2022-12-27T02:14:59.550Z,7.98
2022-12-27T02:17:28.332Z,7.38
2022-12-27T02:20:00.879Z,7.95
2022-12-27T02:23:10.789Z,8.17
2022-12-27T02:25:58.596Z,8.17
2022-12-27T02:28:36.408Z,8.02
2022-12-27T02:31:09.333Z,8.17
2022-12-27T02:33:41.923Z,8.20
2022-12-27T02:36:13.183Z,8.18
2022-12-27T02:38:44.661Z,8.20
2022-12-27T02:41:30.771Z,8.24
2022-12-27T02:44:17.337Z,8.23
2022-12-27T02:47:06.060Z,6.52
2022-12-27T02:49:53.387Z,6.44
2022-12-27T02:52:51.882Z,6.26
2022-12-27T02:55:31.599Z,6.12
2022-12-27T02:58:07.632Z,6.34
2022-12-27T03:01:00.429Z,5.45
2022-12-27T03:03:44.444Z,7.17
2022-12-27T03:06:56.182Z,6.50
2022-12-27T03:10:02.356Z,6.15
2022-12-27T03:12:59.719Z,6.58
2022-12-27T03:15:55.184Z,6.93
2022-12-27T03:18:32.279Z,7.28
2022-12-27T03:21:21.213Z,5.01
2022-12-27T03:24:10.072Z,6.92
2022-12-27T03:26:39.656Z,7.30
2022-12-27T03:29:26.396Z,7.58
2022-12-27T03:32:16.235Z,6.22
2022-12-27T03:34:49.319Z,6.82
2022-12-27T03:37:41.972Z,7.30
2022-12-27T03:40:22.890Z,6.10
2022-12-27T03:43:13.611Z,5.29
2022-12-27T03:46:13.326Z,4.14
2022-12-27T03:48:51.855Z,7.03
2022-12-27T03:51:21.740Z,7.53
2022-12-27T03:53:53.555Z,7.62
2022-12-27T03:56:20.932Z,6.96
2022-12-27T03:58:47.574Z,6.11
2022-12-27T04:01:14.293Z,7.53
2022-12-27T04:03:40.906Z,7.72
2022-12-27T04:06:07.518Z,7.76
2022-12-27T04:08:52.803Z,5.22
2022-12-27T04:11:39.403Z,7.18
2022-12-27T04:14:24.892Z,6.29
2022-12-27T04:17:10.361Z,7.03
2022-12-27T04:19:55.620Z,6.92
2022-12-27T04:22:41.092Z,7.08
2022-12-27T04:25:26.918Z,7.57
2022-12-27T04:28:13.416Z,7.44
2022-12-27T04:30:58.939Z,7.46
2022-12-27T04:33:44.381Z,6.83
2022-12-27T04:36:10.942Z,7.50
2022-12-27T04:38:37.465Z,7.62
2022-12-27T04:41:22.832Z,7.38
2022-12-27T04:44:09.379Z,7.57
2022-12-27T04:46:54.900Z,6.73
2022-12-27T04:49:41.747Z,7.58
2022-12-27T04:52:32.201Z,7.45
2022-12-27T04:55:00.624Z,7.61
2022-12-27T04:57:27.906Z,6.96
2022-12-27T05:00:14.576Z,7.48
2022-12-27T05:02:41.588Z,7.62
2022-12-27T05:05:09.997Z,7.64
2022-12-27T05:07:55.977Z,7.63
2022-12-27T05:10:41.147Z,7.31
2022-12-27T05:13:29.109Z,7.04
2022-12-27T05:15:57.212Z,7.50
2022-12-27T05:18:25.339Z,7.31
2022-12-27T05:20:51.850Z,7.37
2022-12-27T05:23:36.936Z,7.57
2022-12-27T05:26:04.449Z,7.28
2022-12-27T05:28:33.276Z,7.59
2022-12-27T05:31:04.890Z,7.56
2022-12-27T05:33:31.760Z,7.55
2022-12-27T05:35:59.831Z,7.42
2022-12-27T05:38:26.504Z,7.52
2022-12-27T05:40:57.854Z,7.18
2022-12-27T05:43:24.521Z,7.49
2022-12-27T05:45:51.039Z,7.24
2022-12-27T05:48:18.876Z,7.48
2022-12-27T05:50:45.454Z,7.50
2022-12-27T05:53:12.223Z,7.53
2022-12-27T05:55:38.885Z,7.52
2022-12-27T05:58:05.438Z,7.53
2022-12-27T06:00:32.116Z,7.53
2022-12-27T06:02:58.821Z,7.53
2022-12-27T06:05:26.853Z,7.53
2022-12-27T06:07:53.429Z,7.24
2022-12-27T06:10:20.046Z,7.50
2022-12-27T06:12:46.630Z,7.53
2022-12-27T06:15:13.231Z,7.51
2022-12-27T06:17:39.870Z,7.48
2022-12-27T06:20:07.267Z,7.49
2022-12-27T06:22:35.209Z,7.50
2022-12-27T06:25:01.786Z,7.50
2022-12-27T06:27:28.392Z,7.54
2022-12-27T06:29:54.940Z,7.48
2022-12-27T06:32:21.529Z,7.48
2022-12-27T06:34:48.127Z,7.51
2022-12-27T06:37:14.673Z,7.39
2022-12-27T06:39:42.567Z,7.44
2022-12-27T06:42:09.177Z,7.46
2022-12-27T06:44:35.773Z,7.44
2022-12-27T06:47:02.561Z,7.47
2022-12-27T06:49:29.375Z,7.32
2022-12-27T06:51:59.754Z,7.47
2022-12-27T06:54:26.583Z,7.44
2022-12-27T06:56:56.185Z,7.44
2022-12-27T06:59:22.790Z,7.45
2022-12-27T07:01:49.409Z,7.44
2022-12-27T07:04:15.992Z,7.41
2022-12-27T07:06:42.506Z,7.41
2022-12-27T07:09:09.037Z,7.41
2022-12-27T07:11:36.953Z,7.41
2022-12-27T07:14:10.504Z,7.41
2022-12-27T07:16:37.499Z,7.39
2022-12-27T07:19:04.278Z,7.36
2022-12-27T07:21:30.817Z,7.36
2022-12-27T07:23:57.623Z,7.35
2022-12-27T07:26:27.780Z,7.34
2022-12-27T07:28:55.354Z,7.34
2022-12-27T07:31:26.418Z,7.33
2022-12-27T07:33:53.598Z,7.33
2022-12-27T07:36:22.640Z,7.32
2022-12-27T07:38:49.253Z,7.30
2022-12-27T07:41:16.594Z,7.31
2022-12-27T07:43:44.288Z,7.31
2022-12-27T07:46:13.743Z,7.31
2022-12-27T07:48:41.964Z,7.32
2022-12-27T07:51:09.057Z,7.34
2022-12-27T07:53:36.096Z,7.31
2022-12-27T07:56:06.333Z,7.34
2022-12-27T07:58:36.235Z,7.30
2022-12-27T08:01:03.743Z,7.26
2022-12-27T08:03:31.329Z,7.30
2022-12-27T08:05:59.272Z,7.27
2022-12-27T08:08:31.894Z,7.27
2022-12-27T08:11:05.191Z,7.25
2022-12-27T08:13:32.133Z,7.23
2022-12-27T08:15:58.693Z,7.15
2022-12-27T08:18:25.240Z,6.36
2022-12-27T08:20:51.998Z,5.69
2022-12-27T08:23:20.012Z,6.79
2022-12-27T08:25:48.936Z,7.06
2022-12-27T08:28:17.483Z,7.14
2022-12-27T08:30:45.362Z,7.13
2022-12-27T08:33:12.180Z,7.13
2022-12-27T08:35:52.627Z,7.12
2022-12-27T08:38:22.280Z,7.14
2022-12-27T08:40:48.800Z,7.14
2022-12-27T08:43:15.453Z,7.16
2022-12-27T08:45:42.204Z,7.22
2022-12-27T08:48:09.210Z,7.17
2022-12-27T08:50:35.831Z,7.22
2022-12-27T08:53:04.194Z,7.14
2022-12-27T08:55:32.899Z,7.13
2022-12-27T08:58:00.523Z,7.18
2022-12-27T09:00:27.984Z,7.20
2022-12-27T09:02:54.891Z,7.06
2022-12-27T09:05:22.529Z,6.14
2022-12-27T09:07:49.132Z,6.89
2022-12-27T09:10:16.677Z,7.02
2022-12-27T09:12:45.823Z,7.06
2022-12-27T09:15:12.928Z,7.04
2022-12-27T09:17:40.056Z,7.08
2022-12-27T09:20:08.056Z,7.12
2022-12-27T09:22:34.929Z,7.14
2022-12-27T09:25:01.567Z,7.14
2022-12-27T09:27:28.223Z,7.08
2022-12-27T09:29:56.128Z,7.03
2022-12-27T09:32:27.303Z,7.08
2022-12-27T09:34:56.617Z,5.12
2022-12-27T09:37:23.373Z,6.64
2022-12-27T09:39:49.945Z,6.89
2022-12-27T09:42:59.591Z,6.97
2022-12-27T09:45:22.510Z,6.96
2022-12-27T09:47:54.557Z,7.02
2022-12-27T09:50:27.722Z,6.58
2022-12-27T09:53:00.134Z,6.08
2022-12-27T09:55:36.873Z,6.67
2022-12-27T09:58:12.739Z,6.91
2022-12-27T10:00:45.999Z,6.08
2022-12-27T10:03:13.210Z,5.47
2022-12-27T10:05:44.280Z,6.05
2022-12-27T10:08:29.059Z,6.12
2022-12-27T10:11:02.268Z,6.04
2022-12-27T10:13:42.900Z,6.43
2022-12-27T10:16:23.027Z,6.80
2022-12-27T10:19:05.808Z,6.88
2022-12-27T10:21:37.746Z,6.88
2022-12-27T10:24:19.122Z,6.90
2022-12-27T10:26:45.718Z,6.92
2022-12-27T10:29:17.352Z,6.90
2022-12-27T10:31:45.726Z,6.93
2022-12-27T10:34:16.582Z,6.92
2022-12-27T10:36:45.063Z,6.94
2022-12-27T10:39:17.105Z,6.96
2022-12-27T10:41:51.591Z,7.02
2022-12-27T10:44:18.149Z,6.99
2022-12-27T10:46:52.123Z,7.00
2022-12-27T10:49:24.373Z,6.98
2022-12-27T10:51:52.373Z,6.99
2022-12-27T10:54:22.530Z,6.99
2022-12-27T10:56:49.156Z,7.00
2022-12-27T10:59:18.409Z,7.01
2022-12-27T11:01:48.012Z,7.03
2022-12-27T11:04:20.629Z,7.03
2022-12-27T11:06:49.740Z,7.03
2022-12-27T11:09:34.991Z,7.06
2022-12-27T11:12:18.370Z,7.05
2022-12-27T11:14:55.785Z,7.05
2022-12-27T11:17:27.821Z,7.07
2022-12-27T11:19:56.255Z,7.07
2022-12-27T11:22:23.088Z,7.07
2022-12-27T11:24:51.384Z,7.08
2022-12-27T11:27:23.271Z,7.08
2022-12-27T11:29:51.643Z,7.10
2022-12-27T11:32:20.701Z,7.10
2022-12-27T11:34:50.259Z,7.08
2022-12-27T11:37:20.176Z,7.13
2022-12-27T11:39:51.142Z,7.14
2022-12-27T11:42:24.162Z,7.14
2022-12-27T11:44:59.841Z,7.16
2022-12-27T11:47:34.185Z,7.16
2022-12-27T11:50:17.857Z,7.15
2022-12-27T11:53:19.343Z,7.16
2022-12-27T11:56:04.374Z,7.16
2022-12-27T11:58:43.638Z,7.19
2022-12-27T12:01:29.760Z,6.67
2022-12-27T12:04:36.880Z,7.10
2022-12-27T12:07:15.738Z,7.16
2022-12-27T12:09:56.449Z,6.16
2022-12-27T12:12:53.632Z,7.00
2022-12-27T12:15:53.644Z,7.13
2022-12-27T12:18:47.817Z,7.20
2022-12-27T12:21:28.169Z,7.23
2022-12-27T12:24:33.295Z,7.22
2022-12-27T12:27:19.743Z,7.24
2022-12-27T12:30:04.708Z,7.23
2022-12-27T12:32:49.390Z,7.23
2022-12-27T12:35:27.423Z,6.34
2022-12-27T12:38:04.161Z,6.72
2022-12-27T12:40:51.896Z,6.56
2022-12-27T12:43:40.505Z,6.83
2022-12-27T12:46:19.338Z,7.12
2022-12-27T12:49:10.085Z,7.18
2022-12-27T12:51:56.647Z,6.61
2022-12-27T12:54:41.445Z,6.50
2022-12-27T12:57:23.153Z,6.81
2022-12-27T13:00:12.481Z,6.63
2022-12-27T13:03:11.297Z,7.12
2022-12-27T13:05:45.433Z,7.19
2022-12-27T13:08:20.323Z,7.21
2022-12-27T13:11:06.940Z,7.23
2022-12-27T13:13:44.975Z,6.99
2022-12-27T13:16:24.728Z,7.01
2022-12-27T13:18:57.193Z,7.18
2022-12-27T13:21:37.450Z,7.23
2022-12-27T13:24:12.190Z,7.08
2022-12-27T13:26:47.828Z,6.64
2022-12-27T13:29:35.889Z,7.10
2022-12-27T13:32:11.309Z,7.14
2022-12-27T13:34:48.919Z,7.23
2022-12-27T13:37:26.277Z,7.23
2022-12-27T13:40:10.601Z,7.03
2022-12-27T13:43:16.733Z,7.24
2022-12-27T13:45:55.424Z,6.61
2022-12-27T13:48:55.880Z,7.17
2022-12-27T13:51:41.510Z,7.28
2022-12-27T13:54:48.457Z,7.04
2022-12-27T13:57:38.801Z,7.24
2022-12-27T14:00:17.200Z,7.28
2022-12-27T14:03:06.171Z,7.28
2022-12-27T14:06:05.911Z,7.31
2022-12-27T14:08:53.188Z,7.34
2022-12-27T14:11:39.148Z,7.34
2022-12-27T14:14:08.224Z,6.88
2022-12-27T14:16:53.253Z,6.71
2022-12-27T14:19:59.208Z,7.08
2022-12-27T14:22:51.071Z,7.28
2022-12-27T14:26:11.040Z,7.33
2022-12-27T14:29:36.839Z,6.65
2022-12-27T14:32:43.337Z,6.88
2022-12-27T14:35:47.700Z,6.73
2022-12-27T14:38:50.788Z,7.28
2022-12-27T14:41:43.820Z,7.34
2022-12-27T14:44:48.981Z,7.34
2022-12-27T14:48:07.899Z,7.36
2022-12-27T14:51:00.147Z,7.38
2022-12-27T14:54:05.378Z,7.39
2022-12-27T14:56:38.811Z,7.39
2022-12-27T14:59:17.941Z,7.39
2022-12-27T15:01:55.996Z,7.39
2022-12-27T15:04:43.432Z,7.40
2022-12-27T15:07:37.197Z,7.41
2022-12-27T15:10:12.564Z,7.41
2022-12-27T15:12:51.627Z,7.41
2022-12-27T15:15:35.202Z,7.43
2022-12-27T15:18:20.169Z,7.43
2022-12-27T15:21:04.719Z,7.42
2022-12-27T15:23:39.134Z,7.44
2022-12-27T15:26:17.845Z,7.45
2022-12-27T15:29:04.275Z,7.44
2022-12-27T15:31:40.951Z,7.45
2022-12-27T15:34:28.941Z,7.45
2022-12-27T15:36:56.001Z,7.44
2022-12-27T15:39:46.997Z,7.44
2022-12-27T15:42:36.541Z,7.45
2022-12-27T15:45:18.653Z,7.42
2022-12-27T15:48:24.543Z,7.42
2022-12-27T15:50:59.777Z,7.42
2022-12-27T15:53:46.408Z,7.43
2022-12-27T15:56:54.610Z,7.42
2022-12-27T15:59:42.728Z,7.42
2022-12-27T16:02:24.874Z,7.42
2022-12-27T16:04:54.179Z,7.43
2022-12-27T16:08:18.074Z,7.43
2022-12-27T16:10:51.574Z,7.42
2022-12-27T16:13:35.920Z,7.40
2022-12-27T16:16:09.296Z,7.41
2022-12-27T16:19:01.431Z,7.40
2022-12-27T16:21:38.305Z,7.39
2022-12-27T16:24:10.964Z,7.39
2022-12-27T16:26:47.116Z,7.38
2022-12-27T16:29:15.715Z,7.39
2022-12-27T16:31:47.576Z,7.38
2022-12-27T16:34:22.542Z,7.39
2022-12-27T16:36:51.653Z,7.36
2022-12-27T16:39:49.788Z,7.38
2022-12-27T16:42:23.559Z,7.38
2022-12-27T16:44:57.825Z,7.38
2022-12-27T16:47:39.819Z,7.36
2022-12-27T16:50:22.879Z,7.35
2022-12-27T16:53:03.277Z,7.35
2022-12-27T16:55:51.289Z,7.34
2022-12-27T16:58:34.197Z,7.32
2022-12-27T17:01:02.523Z,7.34
2022-12-27T17:03:46.067Z,7.36
2022-12-27T17:06:50.230Z,7.29
2022-12-27T17:09:41.443Z,7.28
2022-12-27T17:12:16.802Z,7.29
2022-12-27T17:14:44.220Z,6.82
2022-12-27T17:17:17.637Z,7.25
2022-12-27T17:19:49.165Z,7.24
2022-12-27T17:22:17.860Z,7.23
2022-12-27T17:24:47.984Z,7.21
2022-12-27T17:27:24.881Z,7.22
2022-12-27T17:30:06.915Z,7.20
2022-12-27T17:32:47.907Z,7.23
2022-12-27T17:35:25.757Z,6.96
2022-12-27T17:38:07.936Z,7.17
2022-12-27T17:40:42.703Z,7.16
2022-12-27T17:43:39.382Z,7.17
2022-12-27T17:46:21.421Z,7.16
2022-12-27T17:48:48.127Z,7.13
2022-12-27T17:51:18.546Z,7.15
2022-12-27T17:54:05.169Z,7.12
2022-12-27T17:57:01.336Z,7.15
2022-12-27T17:59:29.709Z,7.12
2022-12-27T18:01:58.944Z,7.10
2022-12-27T18:04:28.858Z,7.12
2022-12-27T18:06:57.239Z,6.89
2022-12-27T18:09:35.594Z,7.02
2022-12-27T18:12:09.595Z,7.06
2022-12-27T18:14:36.541Z,7.05
2022-12-27T18:17:03.380Z,7.06
2022-12-27T18:19:31.457Z,7.10
2022-12-27T18:21:59.888Z,4.94
2022-12-27T18:24:29.636Z,6.23
2022-12-27T18:27:05.430Z,6.84
2022-12-27T18:29:32.298Z,6.94
2022-12-27T18:32:04.108Z,6.98
2022-12-27T18:34:35.114Z,5.97
2022-12-27T18:37:05.051Z,6.77
2022-12-27T18:39:33.903Z,6.90
2022-12-27T18:42:05.329Z,6.90
2022-12-27T18:44:44.687Z,6.90
2022-12-27T18:47:19.301Z,6.90
2022-12-27T18:49:46.138Z,6.92
2022-12-27T18:52:15.048Z,6.90
2022-12-27T18:54:42.924Z,6.25
2022-12-27T18:57:30.735Z,5.86
2022-12-27T19:00:03.496Z,6.65
2022-12-27T19:02:33.923Z,6.74
2022-12-27T19:05:21.830Z,6.77
2022-12-27T19:07:51.351Z,6.79
2022-12-27T19:10:21.199Z,6.76
2022-12-27T19:12:52.174Z,6.77
2022-12-27T19:15:22.136Z,6.81
2022-12-27T19:17:51.371Z,6.84
2022-12-27T19:20:22.564Z,6.76
2022-12-27T19:22:53.051Z,6.74
2022-12-27T19:25:22.960Z,6.76
2022-12-27T19:28:02.620Z,6.81
2022-12-27T19:30:30.894Z,6.82
2022-12-27T19:32:57.919Z,6.74
2022-12-27T19:35:24.604Z,6.71
2022-12-27T19:37:51.511Z,6.75
2022-12-27T19:40:18.619Z,6.77
2022-12-27T19:42:45.343Z,6.70
2022-12-27T19:45:15.509Z,6.68
2022-12-27T19:47:42.102Z,6.68
2022-12-27T19:50:10.015Z,6.66
2022-12-27T19:52:36.652Z,6.66
2022-12-27T19:55:06.630Z,6.65
2022-12-27T19:57:33.444Z,6.61
2022-12-27T20:00:00.281Z,6.64
2022-12-27T20:02:28.848Z,6.62
2022-12-27T20:04:55.471Z,6.68
2022-12-27T20:07:24.818Z,6.59
2022-12-27T20:09:51.454Z,6.59
2022-12-27T20:12:18.451Z,6.59
2022-12-27T20:14:45.044Z,6.59
2022-12-27T20:17:11.593Z,6.59
2022-12-27T20:19:39.458Z,6.57
2022-12-27T20:22:05.985Z,6.58
2022-12-27T20:24:34.888Z,6.53
2022-12-27T20:27:01.514Z,6.51
2022-12-27T20:29:30.138Z,6.54
2022-12-27T20:31:56.810Z,6.54
2022-12-27T20:34:23.389Z,6.50
2022-12-27T20:36:52.158Z,6.48
2022-12-27T20:39:18.717Z,6.46
2022-12-27T20:41:45.225Z,5.40
2022-12-27T20:44:13.011Z,3.19
2022-12-27T20:46:40.762Z,5.44
2022-12-27T20:49:07.610Z,6.14
2022-12-27T20:51:34.252Z,6.31
2022-12-27T20:54:03.561Z,4.87
2022-12-27T20:56:30.595Z,6.09
2022-12-27T20:58:57.494Z,6.27
2022-12-27T21:01:25.916Z,3.50
2022-12-27T21:03:53.424Z,5.98
2022-12-27T21:06:21.431Z,6.20
2022-12-27T21:08:54.380Z,6.26
2022-12-27T21:11:27.196Z,6.27
2022-12-27T21:13:54.594Z,6.28
2022-12-27T21:16:23.830Z,6.26
2022-12-27T21:18:50.539Z,6.26
2022-12-27T21:21:19.978Z,6.25
2022-12-27T21:23:47.132Z,6.24
2022-12-27T21:26:15.271Z,6.24
2022-12-27T21:28:43.561Z,6.22
2022-12-27T21:31:11.484Z,6.23
2022-12-27T21:33:38.229Z,6.23
2022-12-27T21:36:07.683Z,6.28
2022-12-27T21:38:35.368Z,6.22
2022-12-27T21:41:04.374Z,6.22
2022-12-27T21:43:31.351Z,6.19
2022-12-27T21:46:04.885Z,6.23
2022-12-27T21:48:31.476Z,6.26
2022-12-27T21:51:04.513Z,6.18
2022-12-27T21:53:31.124Z,6.16
2022-12-27T21:55:58.308Z,6.13
2022-12-27T21:58:24.867Z,6.12
2022-12-27T22:00:57.692Z,3.04
2022-12-27T22:03:26.024Z,4.34
2022-12-27T22:05:52.666Z,1.77
2022-12-27T22:08:19.230Z,5.01
2022-12-27T22:10:54.071Z,5.58
2022-12-27T22:13:20.856Z,5.81
2022-12-27T22:15:54.962Z,5.89
2022-12-27T22:18:21.544Z,5.85
2022-12-27T22:20:49.435Z,5.92
2022-12-27T22:23:16.345Z,5.90
2022-12-27T22:25:43.246Z,5.95
2022-12-27T22:28:10.214Z,5.89
2022-12-27T22:30:37.776Z,5.90
2022-12-27T22:33:05.809Z,5.90
2022-12-27T22:35:32.773Z,5.56
2022-12-27T22:38:00.658Z,5.86
2022-12-27T22:40:36.025Z,5.87
2022-12-27T22:43:12.417Z,5.54
2022-12-27T22:45:40.640Z,5.81
2022-12-27T22:48:07.229Z,5.83
2022-12-27T22:50:33.744Z,5.82
2022-12-27T22:53:01.582Z,5.84
2022-12-27T22:55:28.083Z,4.66
2022-12-27T22:57:54.580Z,5.62
2022-12-27T23:00:21.163Z,5.72
2022-12-27T23:02:47.739Z,3.57
2022-12-27T23:05:14.261Z,3.63
2022-12-27T23:08:05.901Z,5.13
2022-12-27T23:10:28.653Z,3.14
2022-12-27T23:12:56.452Z,5.15
2022-12-27T23:15:22.957Z,5.50
2022-12-27T23:17:49.454Z,5.42
2022-12-27T23:20:16.050Z,5.60
2022-12-27T23:22:42.562Z,5.64
2022-12-27T23:25:09.323Z,5.70
2022-12-27T23:27:37.224Z,4.27
2022-12-27T23:30:04.708Z,5.39
2022-12-27T23:32:31.214Z,5.57
2022-12-27T23:34:57.688Z,5.62
2022-12-27T23:37:24.203Z,5.60
2022-12-27T23:39:50.690Z,5.58
2022-12-27T23:42:17.213Z,5.59
2022-12-27T23:44:45.078Z,5.61
2022-12-27T23:47:11.600Z,5.63
2022-12-27T23:49:38.100Z,5.60
2022-12-27T23:52:05.017Z,5.56
2022-12-27T23:54:31.586Z,5.63
2022-12-27T23:56:58.117Z,5.66
2022-12-27T23:59:45.976Z,5.59
